sensor_id;sensor_type;location;lat;lon;timestamp;temperature;humidity
12847;DHT22;6492;48.128;8.320;2023-04-26T00:03:13;2.00;77.50
12847;DHT22;6492;48.128;8.320;2023-04-26T00:07:15;2.00;77.40
12847;DHT22;6492;48.128;8.320;2023-04-26T00:11:17;1.90;77.20
12847;DHT22;6492;48.128;8.320;2023-04-26T00:15:20;1.70;76.80
12847;DHT22;6492;48.128;8.320;2023-04-26T00:19:22;1.50;77.30
12847;DHT22;6492;48.128;8.320;2023-04-26T00:23:24;1.50;77.30
12847;DHT22;6492;48.128;8.320;2023-04-26T00:27:26;1.50;76.70
12847;DHT22;6492;48.128;8.320;2023-04-26T00:31:29;1.60;77.00
12847;DHT22;6492;48.128;8.320;2023-04-26T00:35:30;1.60;77.10
12847;DHT22;6492;48.128;8.320;2023-04-26T00:39:32;1.70;77.40
12847;DHT22;6492;48.128;8.320;2023-04-26T00:43:34;1.80;77.40
12847;DHT22;6492;48.128;8.320;2023-04-26T00:47:37;1.90;77.60
12847;DHT22;6492;48.128;8.320;2023-04-26T00:51:39;1.90;77.70
12847;DHT22;6492;48.128;8.320;2023-04-26T00:55:41;1.90;77.80
12847;DHT22;6492;48.128;8.320;2023-04-26T00:59:43;2.00;77.80
12847;DHT22;6492;48.128;8.320;2023-04-26T01:03:46;2.00;77.80
12847;DHT22;6492;48.128;8.320;2023-04-26T01:08:04;2.00;77.80
12847;DHT22;6492;48.128;8.320;2023-04-26T01:12:06;2.00;77.80
12847;DHT22;6492;48.128;8.320;2023-04-26T01:16:09;1.90;77.80
12847;DHT22;6492;48.128;8.320;2023-04-26T01:20:13;1.80;77.40
12847;DHT22;6492;48.128;8.320;2023-04-26T01:24:16;1.60;77.10
12847;DHT22;6492;48.128;8.320;2023-04-26T01:28:18;1.40;76.70
12847;DHT22;6492;48.128;8.320;2023-04-26T01:32:19;1.30;76.40
12847;DHT22;6492;48.128;8.320;2023-04-26T01:36:21;1.20;76.20
12847;DHT22;6492;48.128;8.320;2023-04-26T01:40:24;1.00;75.90
12847;DHT22;6492;48.128;8.320;2023-04-26T01:44:26;0.90;75.90
12847;DHT22;6492;48.128;8.320;2023-04-26T01:48:28;0.90;76.10
12847;DHT22;6492;48.128;8.320;2023-04-26T01:52:30;1.00;76.40
12847;DHT22;6492;48.128;8.320;2023-04-26T01:56:34;1.10;76.80
12847;DHT22;6492;48.128;8.320;2023-04-26T02:00:36;1.10;77.10
12847;DHT22;6492;48.128;8.320;2023-04-26T02:04:38;1.20;77.20
12847;DHT22;6492;48.128;8.320;2023-04-26T02:08:40;1.30;77.40
12847;DHT22;6492;48.128;8.320;2023-04-26T02:12:43;1.40;77.50
12847;DHT22;6492;48.128;8.320;2023-04-26T02:16:45;1.50;77.60
12847;DHT22;6492;48.128;8.320;2023-04-26T02:20:46;1.50;77.70
12847;DHT22;6492;48.128;8.320;2023-04-26T02:24:49;1.60;77.70
12847;DHT22;6492;48.128;8.320;2023-04-26T02:28:52;1.60;77.80
12847;DHT22;6492;48.128;8.320;2023-04-26T02:32:54;1.60;77.80
12847;DHT22;6492;48.128;8.320;2023-04-26T02:37:00;1.60;77.80
12847;DHT22;6492;48.128;8.320;2023-04-26T02:41:03;1.70;77.90
12847;DHT22;6492;48.128;8.320;2023-04-26T02:45:07;1.70;77.90
12847;DHT22;6492;48.128;8.320;2023-04-26T02:49:09;1.70;77.90
12847;DHT22;6492;48.128;8.320;2023-04-26T02:53:10;1.70;77.90
12847;DHT22;6492;48.128;8.320;2023-04-26T02:57:13;1.60;77.80
12847;DHT22;6492;48.128;8.320;2023-04-26T03:01:16;1.60;77.80
12847;DHT22;6492;48.128;8.320;2023-04-26T03:05:18;1.70;77.90
12847;DHT22;6492;48.128;8.320;2023-04-26T03:09:20;1.60;77.80
12847;DHT22;6492;48.128;8.320;2023-04-26T03:13:22;1.60;77.80
12847;DHT22;6492;48.128;8.320;2023-04-26T03:17:25;1.50;77.70
12847;DHT22;6492;48.128;8.320;2023-04-26T03:21:36;1.30;77.50
12847;DHT22;6492;48.128;8.320;2023-04-26T03:25:38;1.30;77.40
12847;DHT22;6492;48.128;8.320;2023-04-26T03:29:40;1.20;77.20
12847;DHT22;6492;48.128;8.320;2023-04-26T03:33:43;1.00;77.00
12847;DHT22;6492;48.128;8.320;2023-04-26T03:37:44;1.00;77.00
12847;DHT22;6492;48.128;8.320;2023-04-26T03:41:46;1.00;77.10
12847;DHT22;6492;48.128;8.320;2023-04-26T03:45:48;1.00;77.10
12847;DHT22;6492;48.128;8.320;2023-04-26T03:49:51;1.00;77.20
12847;DHT22;6492;48.128;8.320;2023-04-26T03:53:53;1.10;77.40
12847;DHT22;6492;48.128;8.320;2023-04-26T03:57:55;1.00;77.30
12847;DHT22;6492;48.128;8.320;2023-04-26T04:01:57;1.00;77.30
12847;DHT22;6492;48.128;8.320;2023-04-26T04:06:00;1.00;77.30
12847;DHT22;6492;48.128;8.320;2023-04-26T04:10:02;1.00;77.30
12847;DHT22;6492;48.128;8.320;2023-04-26T04:14:04;1.00;77.40
12847;DHT22;6492;48.128;8.320;2023-04-26T04:18:06;1.00;77.40
12847;DHT22;6492;48.128;8.320;2023-04-26T04:22:11;1.00;77.40
12847;DHT22;6492;48.128;8.320;2023-04-26T04:26:24;1.00;77.40
12847;DHT22;6492;48.128;8.320;2023-04-26T04:30:40;1.00;77.40
12847;DHT22;6492;48.128;8.320;2023-04-26T04:34:44;1.00;78.20
12847;DHT22;6492;48.128;8.320;2023-04-26T04:38:53;1.00;77.50
12847;DHT22;6492;48.128;8.320;2023-04-26T04:42:56;1.10;77.70
12847;DHT22;6492;48.128;8.320;2023-04-26T04:47:01;1.20;77.70
12847;DHT22;6492;48.128;8.320;2023-04-26T04:51:03;1.30;78.00
12847;DHT22;6492;48.128;8.320;2023-04-26T04:55:07;1.40;77.90
12847;DHT22;6492;48.128;8.320;2023-04-26T04:59:09;1.50;78.10
12847;DHT22;6492;48.128;8.320;2023-04-26T05:03:13;1.60;78.10
12847;DHT22;6492;48.128;8.320;2023-04-26T05:07:14;1.60;78.20
12847;DHT22;6492;48.128;8.320;2023-04-26T05:11:19;1.70;78.20
12847;DHT22;6492;48.128;8.320;2023-04-26T05:15:21;1.70;78.20
12847;DHT22;6492;48.128;8.320;2023-04-26T05:19:31;1.80;78.30
12847;DHT22;6492;48.128;8.320;2023-04-26T05:23:33;1.90;78.40
12847;DHT22;6492;48.128;8.320;2023-04-26T05:27:36;2.00;78.30
12847;DHT22;6492;48.128;8.320;2023-04-26T05:31:38;2.20;78.50
12847;DHT22;6492;48.128;8.320;2023-04-26T05:35:40;2.40;78.60
12847;DHT22;6492;48.128;8.320;2023-04-26T05:39:42;2.60;78.60
12847;DHT22;6492;48.128;8.320;2023-04-26T05:43:46;2.80;78.60
12847;DHT22;6492;48.128;8.320;2023-04-26T05:47:48;3.10;78.80
12847;DHT22;6492;48.128;8.320;2023-04-26T05:51:50;3.20;78.90
12847;DHT22;6492;48.128;8.320;2023-04-26T05:55:52;3.40;78.90
12847;DHT22;6492;48.128;8.320;2023-04-26T05:59:55;3.70;78.90
12847;DHT22;6492;48.128;8.320;2023-04-26T06:04:29;4.00;79.00
12847;DHT22;6492;48.128;8.320;2023-04-26T06:08:31;4.20;79.10
12847;DHT22;6492;48.128;8.320;2023-04-26T06:12:33;4.30;79.20
12847;DHT22;6492;48.128;8.320;2023-04-26T06:16:36;4.40;79.30
12847;DHT22;6492;48.128;8.320;2023-04-26T06:20:38;4.50;79.30
12847;DHT22;6492;48.128;8.320;2023-04-26T06:24:40;4.80;79.40
12847;DHT22;6492;48.128;8.320;2023-04-26T06:28:42;5.00;79.80
12847;DHT22;6492;48.128;8.320;2023-04-26T06:32:45;4.90;80.40
12847;DHT22;6492;48.128;8.320;2023-04-26T06:37:20;5.30;80.80
12847;DHT22;6492;48.128;8.320;2023-04-26T06:41:22;5.60;80.10
12847;DHT22;6492;48.128;8.320;2023-04-26T06:45:24;5.80;77.20
12847;DHT22;6492;48.128;8.320;2023-04-26T06:49:28;6.20;72.80
12847;DHT22;6492;48.128;8.320;2023-04-26T06:53:29;6.60;65.30
12847;DHT22;6492;48.128;8.320;2023-04-26T06:57:31;6.70;51.30
12847;DHT22;6492;48.128;8.320;2023-04-26T07:01:34;6.90;43.60
12847;DHT22;6492;48.128;8.320;2023-04-26T07:05:38;7.10;42.20
12847;DHT22;6492;48.128;8.320;2023-04-26T07:09:40;7.20;34.80
12847;DHT22;6492;48.128;8.320;2023-04-26T07:13:42;7.10;31.40
12847;DHT22;6492;48.128;8.320;2023-04-26T07:17:43;7.20;32.10
12847;DHT22;6492;48.128;8.320;2023-04-26T07:21:46;7.20;30.60
12847;DHT22;6492;48.128;8.320;2023-04-26T07:25:48;7.40;29.40
12847;DHT22;6492;48.128;8.320;2023-04-26T07:34:15;8.20;29.90
12847;DHT22;6492;48.128;8.320;2023-04-26T07:38:18;8.40;24.50
12847;DHT22;6492;48.128;8.320;2023-04-26T07:42:20;8.40;23.60
12847;DHT22;6492;48.128;8.320;2023-04-26T07:46:22;8.50;24.00
12847;DHT22;6492;48.128;8.320;2023-04-26T07:50:24;8.50;20.90
12847;DHT22;6492;48.128;8.320;2023-04-26T07:54:27;8.40;20.10
12847;DHT22;6492;48.128;8.320;2023-04-26T07:58:29;8.30;21.70
12847;DHT22;6492;48.128;8.320;2023-04-26T08:02:32;8.30;21.60
12847;DHT22;6492;48.128;8.320;2023-04-26T08:06:34;8.60;24.60
12847;DHT22;6492;48.128;8.320;2023-04-26T08:10:40;9.30;20.00
12847;DHT22;6492;48.128;8.320;2023-04-26T08:14:42;10.50;19.30
12847;DHT22;6492;48.128;8.320;2023-04-26T08:18:44;11.40;10.30
12847;DHT22;6492;48.128;8.320;2023-04-26T08:22:46;11.90;6.00
12847;DHT22;6492;48.128;8.320;2023-04-26T08:26:49;11.70;5.20
12847;DHT22;6492;48.128;8.320;2023-04-26T08:31:04;11.20;4.20
12847;DHT22;6492;48.128;8.320;2023-04-26T08:35:06;10.30;6.00
12847;DHT22;6492;48.128;8.320;2023-04-26T08:39:09;9.80;9.40
12847;DHT22;6492;48.128;8.320;2023-04-26T08:43:14;9.70;13.10
12847;DHT22;6492;48.128;8.320;2023-04-26T08:47:18;10.40;13.20
12847;DHT22;6492;48.128;8.320;2023-04-26T08:51:22;10.80;6.10
12847;DHT22;6492;48.128;8.320;2023-04-26T08:55:24;11.20;7.90
12847;DHT22;6492;48.128;8.320;2023-04-26T08:59:29;11.20;5.40
12847;DHT22;6492;48.128;8.320;2023-04-26T09:03:32;10.90;5.30
12847;DHT22;6492;48.128;8.320;2023-04-26T09:07:39;10.60;6.70
12847;DHT22;6492;48.128;8.320;2023-04-26T09:11:53;10.70;4.10
12847;DHT22;6492;48.128;8.320;2023-04-26T09:15:56;11.00;5.30
12847;DHT22;6492;48.128;8.320;2023-04-26T09:19:59;11.70;5.60
12847;DHT22;6492;48.128;8.320;2023-04-26T09:24:04;12.00;1.00
12847;DHT22;6492;48.128;8.320;2023-04-26T09:28:18;12.20;2.30
12847;DHT22;6492;48.128;8.320;2023-04-26T09:32:22;12.50;1.00
12847;DHT22;6492;48.128;8.320;2023-04-26T09:36:24;12.10;1.00
12847;DHT22;6492;48.128;8.320;2023-04-26T09:40:28;11.70;1.80
12847;DHT22;6492;48.128;8.320;2023-04-26T09:44:30;11.50;3.40
12847;DHT22;6492;48.128;8.320;2023-04-26T09:48:34;11.50;4.00
12847;DHT22;6492;48.128;8.320;2023-04-26T09:52:41;12.00;4.40
12847;DHT22;6492;48.128;8.320;2023-04-26T09:56:58;12.00;1.00
12847;DHT22;6492;48.128;8.320;2023-04-26T10:01:02;12.10;1.00
12847;DHT22;6492;48.128;8.320;2023-04-26T10:05:06;12.00;1.00
12847;DHT22;6492;48.128;8.320;2023-04-26T10:09:09;12.20;1.00
12847;DHT22;6492;48.128;8.320;2023-04-26T10:13:11;12.10;1.00
12847;DHT22;6492;48.128;8.320;2023-04-26T10:17:13;11.80;1.00
12847;DHT22;6492;48.128;8.320;2023-04-26T10:21:20;11.60;1.00
12847;DHT22;6492;48.128;8.320;2023-04-26T10:25:33;11.70;1.00
12847;DHT22;6492;48.128;8.320;2023-04-26T10:30:05;12.00;1.00
12847;DHT22;6492;48.128;8.320;2023-04-26T10:34:18;12.30;1.00
12847;DHT22;6492;48.128;8.320;2023-04-26T10:38:21;12.60;1.00
12847;DHT22;6492;48.128;8.320;2023-04-26T10:42:24;13.00;1.00
12847;DHT22;6492;48.128;8.320;2023-04-26T10:46:34;13.50;1.00
12847;DHT22;6492;48.128;8.320;2023-04-26T10:51:07;14.40;1.00
12847;DHT22;6492;48.128;8.320;2023-04-26T10:55:40;14.80;1.00
12847;DHT22;6492;48.128;8.320;2023-04-26T11:04:17;15.40;1.00
12847;DHT22;6492;48.128;8.320;2023-04-26T11:08:20;15.30;1.00
12847;DHT22;6492;48.128;8.320;2023-04-26T11:12:26;14.60;1.00
12847;DHT22;6492;48.128;8.320;2023-04-26T11:16:28;13.80;1.00
12847;DHT22;6492;48.128;8.320;2023-04-26T11:20:30;13.50;1.00
12847;DHT22;6492;48.128;8.320;2023-04-26T11:24:33;13.60;1.00
12847;DHT22;6492;48.128;8.320;2023-04-26T11:28:38;13.80;1.00
12847;DHT22;6492;48.128;8.320;2023-04-26T11:32:40;13.90;1.00
12847;DHT22;6492;48.128;8.320;2023-04-26T11:36:43;13.90;1.00
12847;DHT22;6492;48.128;8.320;2023-04-26T11:40:52;14.10;1.00
12847;DHT22;6492;48.128;8.320;2023-04-26T11:44:56;14.50;1.00
12847;DHT22;6492;48.128;8.320;2023-04-26T11:48:59;14.20;1.00
12847;DHT22;6492;48.128;8.320;2023-04-26T11:53:03;14.00;1.00
12847;DHT22;6492;48.128;8.320;2023-04-26T11:57:12;14.20;1.00
12847;DHT22;6492;48.128;8.320;2023-04-26T12:01:24;14.50;1.00
12847;DHT22;6492;48.128;8.320;2023-04-26T12:05:27;14.20;1.00
12847;DHT22;6492;48.128;8.320;2023-04-26T12:09:30;13.90;1.00
12847;DHT22;6492;48.128;8.320;2023-04-26T12:13:31;13.30;1.00
12847;DHT22;6492;48.128;8.320;2023-04-26T12:17:35;12.60;1.00
12847;DHT22;6492;48.128;8.320;2023-04-26T12:21:40;12.70;1.00
12847;DHT22;6492;48.128;8.320;2023-04-26T12:26:11;12.70;1.00
12847;DHT22;6492;48.128;8.320;2023-04-26T12:30:13;12.80;1.00
12847;DHT22;6492;48.128;8.320;2023-04-26T12:34:17;13.50;1.00
12847;DHT22;6492;48.128;8.320;2023-04-26T12:38:18;14.30;1.00
12847;DHT22;6492;48.128;8.320;2023-04-26T12:42:21;14.80;1.00
12847;DHT22;6492;48.128;8.320;2023-04-26T12:46:22;15.10;1.00
12847;DHT22;6492;48.128;8.320;2023-04-26T12:50:27;15.70;1.00
12847;DHT22;6492;48.128;8.320;2023-04-26T12:54:28;15.80;1.00
12847;DHT22;6492;48.128;8.320;2023-04-26T12:58:30;15.40;1.00
12847;DHT22;6492;48.128;8.320;2023-04-26T13:02:32;15.20;1.00
12847;DHT22;6492;48.128;8.320;2023-04-26T13:06:35;15.80;1.00
12847;DHT22;6492;48.128;8.320;2023-04-26T13:10:37;16.20;1.00
12847;DHT22;6492;48.128;8.320;2023-04-26T13:14:39;16.70;1.00
12847;DHT22;6492;48.128;8.320;2023-04-26T13:18:41;16.80;1.00
12847;DHT22;6492;48.128;8.320;2023-04-26T13:22:44;16.20;1.00
12847;DHT22;6492;48.128;8.320;2023-04-26T13:26:46;15.60;1.00
12847;DHT22;6492;48.128;8.320;2023-04-26T13:30:48;14.90;1.00
12847;DHT22;6492;48.128;8.320;2023-04-26T13:34:49;14.40;1.00
12847;DHT22;6492;48.128;8.320;2023-04-26T13:38:53;14.30;1.00
12847;DHT22;6492;48.128;8.320;2023-04-26T13:42:55;14.30;1.00
12847;DHT22;6492;48.128;8.320;2023-04-26T13:46:57;14.10;1.00
12847;DHT22;6492;48.128;8.320;2023-04-26T13:51:00;14.50;1.00
12847;DHT22;6492;48.128;8.320;2023-04-26T13:55:04;15.60;1.00
12847;DHT22;6492;48.128;8.320;2023-04-26T13:59:06;15.80;1.00
12847;DHT22;6492;48.128;8.320;2023-04-26T14:03:07;15.20;1.00
12847;DHT22;6492;48.128;8.320;2023-04-26T14:07:09;14.20;1.00
12847;DHT22;6492;48.128;8.320;2023-04-26T14:11:13;14.10;1.00
12847;DHT22;6492;48.128;8.320;2023-04-26T14:15:15;14.20;1.00
12847;DHT22;6492;48.128;8.320;2023-04-26T14:19:17;14.00;1.00
12847;DHT22;6492;48.128;8.320;2023-04-26T14:23:19;13.90;1.00
12847;DHT22;6492;48.128;8.320;2023-04-26T14:27:22;13.60;1.00
12847;DHT22;6492;48.128;8.320;2023-04-26T14:31:24;13.50;1.00
12847;DHT22;6492;48.128;8.320;2023-04-26T14:35:27;13.60;1.00
12847;DHT22;6492;48.128;8.320;2023-04-26T14:39:29;13.80;1.00
12847;DHT22;6492;48.128;8.320;2023-04-26T14:43:32;14.40;1.00
12847;DHT22;6492;48.128;8.320;2023-04-26T14:47:34;14.40;1.00
12847;DHT22;6492;48.128;8.320;2023-04-26T14:51:35;13.90;1.00
12847;DHT22;6492;48.128;8.320;2023-04-26T14:55:37;13.20;1.00
12847;DHT22;6492;48.128;8.320;2023-04-26T14:59:40;13.10;1.00
12847;DHT22;6492;48.128;8.320;2023-04-26T15:03:42;13.30;1.00
12847;DHT22;6492;48.128;8.320;2023-04-26T15:07:44;13.20;1.00
12847;DHT22;6492;48.128;8.320;2023-04-26T15:11:46;12.80;1.00
12847;DHT22;6492;48.128;8.320;2023-04-26T15:15:49;12.40;1.00
12847;DHT22;6492;48.128;8.320;2023-04-26T15:20:04;12.80;1.00
12847;DHT22;6492;48.128;8.320;2023-04-26T15:24:15;13.20;1.00
12847;DHT22;6492;48.128;8.320;2023-04-26T15:28:17;13.20;1.00
12847;DHT22;6492;48.128;8.320;2023-04-26T15:32:20;12.90;1.00
12847;DHT22;6492;48.128;8.320;2023-04-26T15:36:35;12.70;1.00
12847;DHT22;6492;48.128;8.320;2023-04-26T15:40:37;12.80;1.00
12847;DHT22;6492;48.128;8.320;2023-04-26T15:44:39;12.90;1.00
12847;DHT22;6492;48.128;8.320;2023-04-26T15:48:42;13.20;1.00
12847;DHT22;6492;48.128;8.320;2023-04-26T15:52:44;13.50;1.00
12847;DHT22;6492;48.128;8.320;2023-04-26T15:56:46;13.90;1.00
12847;DHT22;6492;48.128;8.320;2023-04-26T16:00:48;14.00;1.00
12847;DHT22;6492;48.128;8.320;2023-04-26T16:04:51;13.90;1.00
12847;DHT22;6492;48.128;8.320;2023-04-26T16:09:20;13.50;1.00
12847;DHT22;6492;48.128;8.320;2023-04-26T16:13:22;13.00;1.00
12847;DHT22;6492;48.128;8.320;2023-04-26T16:17:58;12.50;1.00
12847;DHT22;6492;48.128;8.320;2023-04-26T16:22:01;12.60;1.00
12847;DHT22;6492;48.128;8.320;2023-04-26T16:26:03;12.80;1.00
12847;DHT22;6492;48.128;8.320;2023-04-26T16:30:06;12.70;1.00
12847;DHT22;6492;48.128;8.320;2023-04-26T16:34:17;12.60;1.00
12847;DHT22;6492;48.128;8.320;2023-04-26T16:38:43;12.80;1.00
12847;DHT22;6492;48.128;8.320;2023-04-26T16:42:51;12.70;1.00
12847;DHT22;6492;48.128;8.320;2023-04-26T16:46:53;12.50;1.00
12847;DHT22;6492;48.128;8.320;2023-04-26T16:51:05;12.20;1.00
12847;DHT22;6492;48.128;8.320;2023-04-26T16:55:09;12.00;1.00
12847;DHT22;6492;48.128;8.320;2023-04-26T16:59:31;11.70;1.00
12847;DHT22;6492;48.128;8.320;2023-04-26T17:03:33;11.40;1.00
12847;DHT22;6492;48.128;8.320;2023-04-26T17:07:35;11.00;1.00
12847;DHT22;6492;48.128;8.320;2023-04-26T17:11:38;10.60;1.70
12847;DHT22;6492;48.128;8.320;2023-04-26T17:15:42;10.30;2.60
12847;DHT22;6492;48.128;8.320;2023-04-26T17:19:44;10.00;2.80
12847;DHT22;6492;48.128;8.320;2023-04-26T17:24:01;9.70;3.90
12847;DHT22;6492;48.128;8.320;2023-04-26T17:28:04;9.50;4.80
12847;DHT22;6492;48.128;8.320;2023-04-26T17:32:07;9.30;5.00
12847;DHT22;6492;48.128;8.320;2023-04-26T17:36:10;9.20;6.00
12847;DHT22;6492;48.128;8.320;2023-04-26T17:40:12;9.00;6.00
12847;DHT22;6492;48.128;8.320;2023-04-26T17:44:16;9.00;6.80
12847;DHT22;6492;48.128;8.320;2023-04-26T17:48:18;9.20;6.80
12847;DHT22;6492;48.128;8.320;2023-04-26T17:52:19;9.40;6.80
12847;DHT22;6492;48.128;8.320;2023-04-26T17:56:21;9.50;6.30
12847;DHT22;6492;48.128;8.320;2023-04-26T18:00:24;9.40;6.00
12847;DHT22;6492;48.128;8.320;2023-04-26T18:04:36;9.10;6.90
12847;DHT22;6492;48.128;8.320;2023-04-26T18:08:44;8.60;9.10
12847;DHT22;6492;48.128;8.320;2023-04-26T18:12:47;8.10;10.70
12847;DHT22;6492;48.128;8.320;2023-04-26T18:17:09;7.70;11.90
12847;DHT22;6492;48.128;8.320;2023-04-26T18:21:13;7.30;13.30
12847;DHT22;6492;48.128;8.320;2023-04-26T18:25:15;6.90;15.90
12847;DHT22;6492;48.128;8.320;2023-04-26T18:29:17;6.60;17.40
12847;DHT22;6492;48.128;8.320;2023-04-26T18:33:21;6.30;19.10
12847;DHT22;6492;48.128;8.320;2023-04-26T18:37:27;6.10;20.20
12847;DHT22;6492;48.128;8.320;2023-04-26T18:41:29;6.00;20.40
12847;DHT22;6492;48.128;8.320;2023-04-26T18:45:45;6.00;21.00
12847;DHT22;6492;48.128;8.320;2023-04-26T18:49:49;6.00;22.50
12847;DHT22;6492;48.128;8.320;2023-04-26T18:53:59;6.00;22.50
12847;DHT22;6492;48.128;8.320;2023-04-26T18:58:02;6.00;23.20
12847;DHT22;6492;48.128;8.320;2023-04-26T19:02:04;5.90;24.00
12847;DHT22;6492;48.128;8.320;2023-04-26T19:06:08;5.90;24.60
12847;DHT22;6492;48.128;8.320;2023-04-26T19:10:18;5.80;24.80
12847;DHT22;6492;48.128;8.320;2023-04-26T19:14:28;5.80;25.60
12847;DHT22;6492;48.128;8.320;2023-04-26T19:18:30;5.70;25.90
12847;DHT22;6492;48.128;8.320;2023-04-26T19:22:43;5.70;25.80
12847;DHT22;6492;48.128;8.320;2023-04-26T19:26:45;5.70;25.80
12847;DHT22;6492;48.128;8.320;2023-04-26T19:30:48;5.70;26.10
12847;DHT22;6492;48.128;8.320;2023-04-26T19:34:51;5.60;26.40
12847;DHT22;6492;48.128;8.320;2023-04-26T19:38:54;5.60;27.30
12847;DHT22;6492;48.128;8.320;2023-04-26T19:42:56;5.60;28.20
12847;DHT22;6492;48.128;8.320;2023-04-26T19:47:11;5.50;28.40
12847;DHT22;6492;48.128;8.320;2023-04-26T19:51:14;5.50;27.90
12847;DHT22;6492;48.128;8.320;2023-04-26T19:55:18;5.50;27.80
12847;DHT22;6492;48.128;8.320;2023-04-26T19:59:20;5.40;27.70
12847;DHT22;6492;48.128;8.320;2023-04-26T20:03:41;5.40;28.30
12847;DHT22;6492;48.128;8.320;2023-04-26T20:07:43;5.40;30.00
12847;DHT22;6492;48.128;8.320;2023-04-26T20:16:45;5.30;30.70
12847;DHT22;6492;48.128;8.320;2023-04-26T20:20:47;5.20;31.20
12847;DHT22;6492;48.128;8.320;2023-04-26T20:24:50;5.20;31.20
12847;DHT22;6492;48.128;8.320;2023-04-26T20:28:52;5.10;31.00
12847;DHT22;6492;48.128;8.320;2023-04-26T20:32:55;5.10;30.80
12847;DHT22;6492;48.128;8.320;2023-04-26T20:36:57;5.10;30.40
12847;DHT22;6492;48.128;8.320;2023-04-26T20:41:13;5.10;30.20
12847;DHT22;6492;48.128;8.320;2023-04-26T20:45:15;5.00;32.30
12847;DHT22;6492;48.128;8.320;2023-04-26T20:49:19;5.20;36.30
12847;DHT22;6492;48.128;8.320;2023-04-26T20:53:21;4.90;36.40
12847;DHT22;6492;48.128;8.320;2023-04-26T20:57:23;4.90;37.20
12847;DHT22;6492;48.128;8.320;2023-04-26T21:01:25;4.90;38.00
12847;DHT22;6492;48.128;8.320;2023-04-26T21:05:28;4.80;37.50
12847;DHT22;6492;48.128;8.320;2023-04-26T21:09:30;4.80;37.10
12847;DHT22;6492;48.128;8.320;2023-04-26T21:13:32;4.70;36.90
12847;DHT22;6492;48.128;8.320;2023-04-26T21:17:34;4.70;37.00
12847;DHT22;6492;48.128;8.320;2023-04-26T21:21:37;4.70;37.50
12847;DHT22;6492;48.128;8.320;2023-04-26T21:25:43;4.60;37.40
12847;DHT22;6492;48.128;8.320;2023-04-26T21:29:45;4.60;37.60
12847;DHT22;6492;48.128;8.320;2023-04-26T21:33:47;4.50;37.80
12847;DHT22;6492;48.128;8.320;2023-04-26T21:37:50;4.50;37.90
12847;DHT22;6492;48.128;8.320;2023-04-26T21:41:51;4.50;38.20
12847;DHT22;6492;48.128;8.320;2023-04-26T21:45:54;4.50;38.90
12847;DHT22;6492;48.128;8.320;2023-04-26T21:49:57;4.50;39.10
12847;DHT22;6492;48.128;8.320;2023-04-26T21:54:00;4.50;39.00
12847;DHT22;6492;48.128;8.320;2023-04-26T21:58:02;4.50;39.00
12847;DHT22;6492;48.128;8.320;2023-04-26T22:02:04;4.40;39.00
12847;DHT22;6492;48.128;8.320;2023-04-26T22:06:07;4.40;39.60
12847;DHT22;6492;48.128;8.320;2023-04-26T22:10:10;4.40;39.80
12847;DHT22;6492;48.128;8.320;2023-04-26T22:14:12;4.40;40.60
12847;DHT22;6492;48.128;8.320;2023-04-26T22:18:23;4.40;40.60
12847;DHT22;6492;48.128;8.320;2023-04-26T22:22:25;4.30;40.60
12847;DHT22;6492;48.128;8.320;2023-04-26T22:26:29;4.30;41.00
12847;DHT22;6492;48.128;8.320;2023-04-26T22:30:31;4.30;40.60
12847;DHT22;6492;48.128;8.320;2023-04-26T22:34:32;4.30;40.00
12847;DHT22;6492;48.128;8.320;2023-04-26T22:38:34;4.20;39.90
12847;DHT22;6492;48.128;8.320;2023-04-26T22:42:37;4.30;40.10
12847;DHT22;6492;48.128;8.320;2023-04-26T22:46:39;4.20;40.30
12847;DHT22;6492;48.128;8.320;2023-04-26T22:50:41;4.20;40.60
12847;DHT22;6492;48.128;8.320;2023-04-26T22:54:43;4.30;40.20
12847;DHT22;6492;48.128;8.320;2023-04-26T22:58:46;4.30;39.00
12847;DHT22;6492;48.128;8.320;2023-04-26T23:02:48;4.40;38.50
12847;DHT22;6492;48.128;8.320;2023-04-26T23:06:51;4.40;38.80
12847;DHT22;6492;48.128;8.320;2023-04-26T23:10:53;4.40;39.00
12847;DHT22;6492;48.128;8.320;2023-04-26T23:14:56;4.40;39.60
12847;DHT22;6492;48.128;8.320;2023-04-26T23:18:58;4.40;40.00
12847;DHT22;6492;48.128;8.320;2023-04-26T23:23:00;4.30;40.40
12847;DHT22;6492;48.128;8.320;2023-04-26T23:27:02;4.30;41.20
12847;DHT22;6492;48.128;8.320;2023-04-26T23:31:05;4.40;41.90
12847;DHT22;6492;48.128;8.320;2023-04-26T23:35:07;4.30;42.10
12847;DHT22;6492;48.128;8.320;2023-04-26T23:39:09;4.30;42.30
12847;DHT22;6492;48.128;8.320;2023-04-26T23:43:12;4.20;42.40
12847;DHT22;6492;48.128;8.320;2023-04-26T23:47:26;4.20;42.40
12847;DHT22;6492;48.128;8.320;2023-04-26T23:51:29;4.20;42.80
12847;DHT22;6492;48.128;8.320;2023-04-26T23:55:31;4.10;42.90
12847;DHT22;6492;48.128;8.320;2023-04-26T23:59:33;4.20;43.00
